SBRPSBSJ

Guest
Details From SBRP - Leite Lopes
To SBSJ - Sao Jose Dos Campos
Flight Number -
Tags Routegen
Created
Modified
Stats Distance 181 nm / 336 km
Max Altitude 0 ft / 0 m
Waypoints 4
Social Downloads 2
Likes 0
Share VATSIM

Download

Looking for another format? Having issues loading an existing format? Contact us
Advertisement - Login to hide

Notes

None

Route

SBRP -20.99_-047.82 -22.91_-046.20 SBSJ

ID Type Via Altitude Latitude Longitude Leg Dist Tot Dist Heading (true) Name
O SBRP APT - 0 ft / 0 m -21.12508˚ -47.77709˚ - 0 nm - -
-20.99_-047.82 DME - 0 ft / 0 m -20.98638˚ -47.82137˚ 8 nm 8 nm 343° / 343° -
-22.91_-046.20 DME - 0 ft / 0 m -22.91162˚ -46.20449˚ 146 nm 155 nm 142° / 142° -
O SBSJ APT - 0 ft / 0 m -23.21968˚ -45.87193˚ 26 nm 181 nm 135° / 135° -

Altitude Profile

Advertisement - Login to hide

Weather


0- 5 10 15 20 25 30 35+ Temperature / ° C

Clouds and Precipitation
Forecast for 2017-12-14 12:00 UTC. Updated an hour ago

Ground ~20,000 ft ~40,000 ft Winds

SBRP

Details ICAO SBRP (RAO)
Name LEITE LOPES
Region Brazil
Timezone America/Sao_Paulo (UTC-2.0)
Stats Elevation 1,802 ft / 549 m (AMSL)
Location -21.134166° -47.774189°
Runways 1
Magnetic Variation 21.203° W

METAR

SBRP 141000Z 11006KT CAVOK 23/18 Q1017

Decode

TAF

TAF SBRP 140117Z 1406/1506 10005KT CAVOK TN22/1409Z TX32/1418Z BECMG 1414/1415 SCT040 FEW045TCU PROB30 1416/1420 TSRA BKN030 FEW045CB BECMG 1420/1422 15005KT CAVOK RMK PHM

Decode

Departure Runways

ID Width Length Bearing (true) Bearing (mag) Surface Threshold Offset Overrun Length
18 115 ft / 35 m 6,918 ft / 2,109 m 163.40° 184.60° Asphalt 657 ft / 200 m 0 ft / 0 m
36 115 ft / 35 m 6,918 ft / 2,109 m 343.40° 4.60° Asphalt 328 ft / 100 m 0 ft / 0 m

SBSJ

Details ICAO SBSJ (SJK)
Name Sao Jose Dos Campos
Region Brazil
Timezone America/Sao_Paulo (UTC-2.0)
Stats Elevation 2,120 ft / 646 m (AMSL)
Location -23.228171° -45.862738°
Runways 1
Magnetic Variation 21.709° W

METAR

SBSJ 141000Z 08004KT 5000 BR BKN017 19/16 Q1020

Decode

TAF

TAF TAF SBSJ 140200Z 1406/1506 11005KT 8000 FEW025 TN17/1408Z TX28/1417Z BECMG 1407/1409 08004KT 4000 BR BKN010 BECMG 1409/1412 8000 NSW SCT020 BECMG 1414/1417 14010KT SCT030 BECMG 1500/1502 11005KT FEW025 RMK PHC

Decode

Destination Runways

ID Width Length Bearing (true) Bearing (mag) Surface Threshold Offset Overrun Length
15 148 ft / 45 m 8,741 ft / 2,664 m 135.13° 156.84° Asphalt 0 ft / 0 m 0 ft / 0 m
33 148 ft / 45 m 8,741 ft / 2,664 m 315.12° 336.83° Asphalt 0 ft / 0 m 0 ft / 0 m

Approach Navaids

Runway Type Ident Frequency Range Bearing (true) Bearing (mag) Slope Elevation
15 Localiser ISJ 110.30 MHz 18 nm / 33 km 134.95° 156.66° - 2,120 ft / 646 m (AMSL)
15 Glidescope ISJ 110.30 MHz 10 nm / 19 km 135.13° 156.84° 3.00° 2,120 ft / 646 m (AMSL)
15 DME ISJ 110.30 MHz 18 nm / 33 km - - - 2,120 ft / 646 m (AMSL)